Time,TemperatureF,DewpointF,PressureIn,WindDirection,WindDirectionDegrees,WindSpeedMPH,WindSpeedGustMPH,Humidity,HourlyPrecipIn,Conditions,Clouds,dailyrainin,SoftwareType,DateUTC
2013-12-20 00:00:00,30.0,-99.9,-100.00,WSW,256,3.0,3.0,-999,-99.99,,,-99.99,,2013-12-20 08:00:00,
2013-12-20 00:42:00,30.0,-99.9,-100.00,WSW,256,3.0,3.0,-999,-99.99,,,-99.99,,2013-12-20 08:42:00,
2013-12-20 00:52:00,30.0,-99.9,-100.00,WSW,256,3.0,3.0,-999,-99.99,,,-99.99,,2013-12-20 08:52:00,
2013-12-20 01:00:00,32.0,-99.9,-100.00,North,-999,0.0,2.0,-999,-99.99,,,-99.99,,2013-12-20 09:00:00,
2013-12-20 01:44:00,32.0,-99.9,-100.00,North,-999,0.0,2.0,-999,-99.99,,,-99.99,,2013-12-20 09:44:00,
2013-12-20 01:54:00,32.0,-99.9,-100.00,North,-999,0.0,2.0,-999,-99.99,,,-99.99,,2013-12-20 09:54:00,
2013-12-20 02:00:00,32.0,-99.9,-100.00,North,-999,0.0,1.0,-999,-99.99,,,-99.99,,2013-12-20 10:00:00,
2013-12-20 02:53:00,32.0,-99.9,-100.00,North,-999,0.0,1.0,-999,-99.99,,,-99.99,,2013-12-20 10:53:00,
2013-12-20 03:00:00,32.0,-99.9,-100.00,West,267,1.0,2.0,-999,-99.99,,,-99.99,,2013-12-20 11:00:00,
2013-12-20 03:42:00,32.0,-99.9,-100.00,West,267,1.0,2.0,-999,-99.99,,,-99.99,,2013-12-20 11:42:00,
2013-12-20 03:53:00,32.0,-99.9,-100.00,West,267,1.0,2.0,-999,-99.99,,,-99.99,,2013-12-20 11:53:00,
2013-12-20 05:00:00,34.0,-99.9,-100.00,WSW,252,1.0,3.0,-999,-99.99,,,-99.99,,2013-12-20 13:00:00,
2013-12-20 05:42:00,34.0,-99.9,-100.00,WSW,252,1.0,3.0,-999,-99.99,,,-99.99,,2013-12-20 13:42:00,
2013-12-20 05:53:00,34.0,-99.9,-100.00,WSW,252,1.0,3.0,-999,-99.99,,,-99.99,,2013-12-20 13:53:00,
2013-12-20 06:00:00,38.0,-99.9,-100.00,West,276,9.0,12.0,-999,-99.99,,,-99.99,,2013-12-20 14:00:00,
2013-12-20 06:42:00,38.0,-99.9,-100.00,West,276,9.0,12.0,-999,-99.99,,,-99.99,,2013-12-20 14:42:00,
2013-12-20 06:52:00,38.0,-99.9,-100.00,West,276,9.0,12.0,-999,-99.99,,,-99.99,,2013-12-20 14:52:00,
2013-12-20 07:00:00,37.0,-99.9,-100.00,West,266,7.0,10.0,-999,-99.99,,,-99.99,,2013-12-20 15:00:00,
2013-12-20 07:44:00,37.0,-99.9,-100.00,West,266,7.0,10.0,-999,-99.99,,,-99.99,,2013-12-20 15:44:00,
2013-12-20 07:54:00,37.0,-99.9,-100.00,West,266,7.0,10.0,-999,-99.99,,,-99.99,,2013-12-20 15:54:00,
2013-12-20 08:00:00,36.0,-99.9,-100.00,West,263,13.0,13.0,-999,-99.99,,,-99.99,,2013-12-20 16:00:00,
2013-12-20 08:43:00,36.0,-99.9,-100.00,West,263,13.0,13.0,-999,-99.99,,,-99.99,,2013-12-20 16:43:00,
2013-12-20 08:53:00,36.0,-99.9,-100.00,West,263,13.0,13.0,-999,-99.99,,,-99.99,,2013-12-20 16:53:00,
2013-12-20 09:00:00,37.0,-99.9,-100.00,West,268,6.0,9.0,-999,-99.99,,,-99.99,,2013-12-20 17:00:00,
2013-12-20 09:42:00,37.0,-99.9,-100.00,West,268,6.0,9.0,-999,-99.99,,,-99.99,,2013-12-20 17:42:00,
2013-12-20 09:52:00,37.0,-99.9,-100.00,West,268,6.0,9.0,-999,-99.99,,,-99.99,,2013-12-20 17:52:00,
2013-12-20 10:00:00,36.0,-99.9,-100.00,WSW,254,12.0,16.0,-999,-99.99,,,-99.99,,2013-12-20 18:00:00,
2013-12-20 10:43:00,36.0,-99.9,-100.00,WSW,254,12.0,16.0,-999,-99.99,,,-99.99,,2013-12-20 18:43:00,
2013-12-20 10:52:00,36.0,-99.9,-100.00,WSW,254,12.0,16.0,-999,-99.99,,,-99.99,,2013-12-20 18:52:00,
2013-12-20 11:00:00,38.0,-99.9,-100.00,West,263,13.0,16.0,-999,-99.99,,,-99.99,,2013-12-20 19:00:00,
2013-12-20 11:42:00,38.0,-99.9,-100.00,West,263,13.0,16.0,-999,-99.99,,,-99.99,,2013-12-20 19:42:00,
2013-12-20 11:52:00,38.0,-99.9,-100.00,West,263,13.0,16.0,-999,-99.99,,,-99.99,,2013-12-20 19:52:00,
2013-12-20 12:00:00,37.0,-99.9,-100.00,WSW,256,9.0,16.0,-999,-99.99,,,-99.99,,2013-12-20 20:00:00,
2013-12-20 12:42:00,37.0,-99.9,-100.00,WSW,256,9.0,16.0,-999,-99.99,,,-99.99,,2013-12-20 20:42:00,
2013-12-20 12:52:00,37.0,-99.9,-100.00,WSW,256,9.0,16.0,-999,-99.99,,,-99.99,,2013-12-20 20:52:00,
2013-12-20 13:00:00,40.0,-99.9,-100.00,West,274,5.0,8.0,-999,-99.99,,,-99.99,,2013-12-20 21:00:00,
2013-12-20 13:43:00,40.0,-99.9,-100.00,West,274,5.0,8.0,-999,-99.99,,,-99.99,,2013-12-20 21:43:00,
2013-12-20 13:53:00,40.0,-99.9,-100.00,West,274,5.0,8.0,-999,-99.99,,,-99.99,,2013-12-20 21:53:00,
2013-12-20 14:00:00,40.0,-99.9,-100.00,WSW,253,11.0,13.0,-999,-99.99,,,-99.99,,2013-12-20 22:00:00,
2013-12-20 14:43:00,40.0,-99.9,-100.00,WSW,253,11.0,13.0,-999,-99.99,,,-99.99,,2013-12-20 22:43:00,
2013-12-20 14:53:00,40.0,-99.9,-100.00,WSW,253,11.0,13.0,-999,-99.99,,,-99.99,,2013-12-20 22:53:00,
2013-12-20 15:00:00,43.0,-99.9,-100.00,West,266,7.0,8.0,-999,-99.99,,,-99.99,,2013-12-20 23:00:00,
2013-12-20 15:43:00,43.0,-99.9,-100.00,West,266,7.0,8.0,-999,-99.99,,,-99.99,,2013-12-20 23:43:00,
2013-12-20 15:53:00,43.0,-99.9,-100.00,West,266,7.0,8.0,-999,-99.99,,,-99.99,,2013-12-20 23:53:00,
2013-12-20 16:00:00,42.0,-99.9,-100.00,West,270,5.0,19.0,-999,-99.99,,,-99.99,,2013-12-21 00:00:00,
2013-12-20 16:42:00,42.0,-99.9,-100.00,West,270,5.0,19.0,-999,-99.99,,,-99.99,,2013-12-21 00:42:00,
2013-12-20 16:52:00,42.0,-99.9,-100.00,West,270,5.0,19.0,-999,-99.99,,,-99.99,,2013-12-21 00:52:00,
2013-12-20 17:00:00,41.0,-99.9,-100.00,NNW,328,6.0,19.0,-999,-99.99,,,-99.99,,2013-12-21 01:00:00,
2013-12-20 17:42:00,41.0,-99.9,-100.00,NNW,328,6.0,19.0,-999,-99.99,,,-99.99,,2013-12-21 01:42:00,
2013-12-20 17:52:00,41.0,-99.9,-100.00,NNW,328,6.0,19.0,-999,-99.99,,,-99.99,,2013-12-21 01:52:00,
2013-12-20 18:00:00,43.0,-99.9,-100.00,West,262,9.0,17.0,-999,-99.99,,,-99.99,,2013-12-21 02:00:00,
2013-12-20 18:42:00,43.0,-99.9,-100.00,West,262,9.0,17.0,-999,-99.99,,,-99.99,,2013-12-21 02:42:00,
2013-12-20 18:52:00,43.0,-99.9,-100.00,West,262,9.0,17.0,-999,-99.99,,,-99.99,,2013-12-21 02:52:00,